Time;durP1;ratioP1;P1;durP2;ratioP2;P2;SDS_P1;SDS_P2;PMS_P1;PMS_P2;Temp;Humidity;BMP_temperature;BMP_pressure;BME280_temperature;BME280_humidity;BME280_pressure;Samples;Min_cycle;Max_cycle;Signal;HPM_P1;HPM_P2
2023/06/28 00:07:17;;;;;;;3.70;2.28;;;15.70;73.80;;;;;;20704063;28;20068;-41
2023/06/28 00:17:38;;;;;;;7.63;3.60;;;15.70;78.50;;;;;;20707313;28;20403;-41
2023/06/28 00:28:00;;;;;;;7.55;3.60;;;15.80;60.30;;;;;;20703107;28;20133;-41
2023/06/28 00:38:21;;;;;;;4.40;2.42;;;15.70;50.10;;;;;;20704438;28;20045;-40
2023/06/28 00:48:42;;;;;;;5.10;1.30;;;15.80;40.90;;;;;;20703385;28;20828;-40
2023/06/28 00:59:05;;;;;;;4.20;1.30;;;15.90;1.00;;;;;;20701749;28;20531;-40
2023/06/28 01:09:28;;;;;;;2.70;0.95;;;15.90;1.00;;;;;;20707454;28;20068;-41
2023/06/28 01:19:49;;;;;;;3.55;1.13;;;15.90;1.00;;;;;;20687776;28;20045;-41
2023/06/28 01:30:14;;;;;;;5.47;1.10;;;15.90;1.00;;;;;;20696322;28;20084;-41
2023/06/28 01:40:37;;;;;;;2.97;1.20;;;16.00;1.00;;;;;;20698796;28;20412;-41
2023/06/28 01:50:59;;;;;;;3.95;1.60;;;15.90;1.00;;;;;;20706345;28;20527;-41
2023/06/28 02:01:20;;;;;;;5.30;1.63;;;15.70;1.00;;;;;;20699450;28;20071;-40
2023/06/28 02:11:41;;;;;;;6.55;2.20;;;15.50;1.00;;;;;;20697325;28;20053;-40
2023/06/28 02:22:03;;;;;;;4.35;2.10;;;15.40;13.90;;;;;;20693289;28;20312;-40
2023/06/28 02:32:25;;;;;;;6.72;2.50;;;15.20;74.60;;;;;;20688572;28;20065;-40
2023/06/28 02:42:46;;;;;;;5.90;2.20;;;15.20;99.90;;;;;;20694093;28;20029;-40
2023/06/28 02:53:08;;;;;;;4.45;2.17;;;15.00;71.50;;;;;;20693105;28;20050;-40
2023/06/28 03:03:33;;;;;;;4.18;2.15;;;14.90;73.50;;;;;;20693205;28;20065;-40
2023/06/28 03:13:54;;;;;;;6.05;2.22;;;14.70;77.70;;;;;;20692182;28;20084;-40
2023/06/28 03:24:15;;;;;;;6.22;2.75;;;14.80;87.40;;;;;;20689053;28;20072;-40
2023/06/28 03:34:37;;;;;;;9.63;3.85;;;14.90;99.90;;;;;;20693489;28;20145;-40
2023/06/28 03:44:58;;;;;;;7.53;3.35;;;15.00;99.90;;;;;;20699618;28;20076;-40
2023/06/28 03:55:19;;;;;;;10.07;4.78;;;15.10;99.90;;;;;;20688511;28;20140;-40
2023/06/28 04:05:41;;;;;;;11.35;4.75;;;15.20;99.90;;;;;;20704160;28;20053;-40
2023/06/28 04:16:03;;;;;;;11.57;5.38;;;15.20;99.90;;;;;;20708574;28;20129;-40
2023/06/28 04:26:24;;;;;;;11.18;5.57;;;15.30;99.90;;;;;;20709987;28;20101;-40
2023/06/28 04:36:46;;;;;;;10.77;5.75;;;15.30;99.90;;;;;;20708447;28;20527;-40
2023/06/28 04:47:08;;;;;;;13.98;6.22;;;15.40;99.90;;;;;;20699419;28;20050;-40
2023/06/28 04:57:29;;;;;;;13.10;7.43;;;15.50;99.90;;;;;;20701480;28;21014;-40
2023/06/28 05:07:52;;;;;;;12.00;7.22;;;15.60;99.90;;;;;;20697754;28;20076;-40
2023/06/28 05:18:13;;;;;;;14.32;7.13;;;15.80;99.90;;;;;;20701123;28;20065;-40
2023/06/28 05:28:35;;;;;;;16.17;7.72;;;15.70;99.90;;;;;;20698103;28;20068;-40
2023/06/28 05:38:56;;;;;;;19.02;8.25;;;15.60;99.90;;;;;;20700061;28;20732;-40
2023/06/28 05:49:18;;;;;;;18.50;9.05;;;15.70;99.90;;;;;;20682517;28;20065;-40
2023/06/28 05:59:40;;;;;;;19.08;8.30;;;15.80;99.90;;;;;;20693417;28;20572;-40
2023/06/28 06:10:01;;;;;;;19.73;8.98;;;15.70;99.90;;;;;;20685913;28;20049;-40
2023/06/28 06:20:22;;;;;;;20.17;10.02;;;15.80;99.90;;;;;;20698291;28;20302;-40
2023/06/28 06:30:44;;;;;;;16.92;9.35;;;15.80;99.90;;;;;;20688253;28;20068;-40
2023/06/28 06:41:05;;;;;;;28.15;17.63;;;15.90;99.90;;;;;;20697778;28;20065;-41
2023/06/28 06:51:26;;;;;;;20.02;10.40;;;15.90;99.90;;;;;;20701493;28;20046;-40
2023/06/28 07:01:48;;;;;;;18.75;10.80;;;16.00;99.90;;;;;;20705388;28;20046;-40
2023/06/28 07:12:09;;;;;;;17.58;10.93;;;16.10;99.90;;;;;;20702781;28;20049;-40
2023/06/28 07:22:31;;;;;;;20.08;9.73;;;16.10;99.90;;;;;;20720312;28;20050;-40
2023/06/28 07:32:52;;;;;;;19.75;10.02;;;16.10;99.90;;;;;;20729907;28;20069;-40
2023/06/28 07:43:15;;;;;;;14.60;8.60;;;16.10;99.90;;;;;;20711891;28;20030;-40
2023/06/28 07:53:36;;;;;;;17.35;9.10;;;16.20;99.90;;;;;;20714830;28;20130;-40
2023/06/28 08:03:57;;;;;;;14.02;8.02;;;16.40;99.90;;;;;;20725400;28;20029;-40
2023/06/28 08:14:18;;;;;;;12.77;7.70;;;16.40;99.90;;;;;;20733417;28;20041;-40
2023/06/28 08:24:40;;;;;;;14.45;7.63;;;16.60;99.90;;;;;;20719951;28;20549;-40
2023/06/28 08:35:03;;;;;;;16.02;7.93;;;16.70;99.90;;;;;;20723702;28;20522;-40
2023/06/28 08:45:25;;;;;;;20.73;8.32;;;16.80;99.90;;;;;;20727149;28;20100;-40
2023/06/28 08:55:47;;;;;;;15.25;8.77;;;17.00;99.90;;;;;;20723965;28;20393;-40
2023/06/28 09:06:09;;;;;;;17.45;8.45;;;17.40;97.50;;;;;;20718908;28;20066;-40
2023/06/28 09:16:30;;;;;;;16.52;9.40;;;17.60;96.90;;;;;;20716102;28;20075;-40
2023/06/28 09:26:52;;;;;;;18.50;9.75;;;17.60;99.90;;;;;;20710285;28;20072;-40
2023/06/28 09:37:13;;;;;;;14.77;8.43;;;17.70;98.10;;;;;;20703227;28;20155;-40
2023/06/28 09:47:34;;;;;;;15.80;9.02;;;17.90;99.90;;;;;;20711433;28;20037;-41
2023/06/28 09:57:57;;;;;;;17.95;9.90;;;18.30;99.90;;;;;;20713691;28;20038;-41
2023/06/28 10:08:19;;;;;;;18.65;10.25;;;18.70;77.20;;;;;;20718020;28;20167;-41
2023/06/28 10:18:42;;;;;;;16.15;10.20;;;19.00;66.90;;;;;;20717830;28;21031;-41
2023/06/28 10:29:04;;;;;;;25.70;13.35;;;19.20;46.00;;;;;;20713268;28;20084;-41
2023/06/28 10:39:26;;;;;;;18.35;11.48;;;19.50;22.80;;;;;;20711937;28;20079;-41
2023/06/28 10:50:08;;;;;;;22.95;12.60;;;19.60;26.10;;;;;;20698623;28;20821;-41
2023/06/28 11:00:41;;;;;;;21.92;13.20;;;20.10;1.00;;;;;;20724501;28;20040;-41
2023/06/28 11:11:02;;;;;;;20.67;13.38;;;20.90;1.00;;;;;;20719809;28;20049;-41
2023/06/28 11:21:25;;;;;;;21.30;13.18;;;21.40;1.00;;;;;;20728644;28;20448;-41
2023/06/28 11:31:48;;;;;;;20.33;14.32;;;21.40;1.00;;;;;;20723008;28;20069;-41
2023/06/28 11:42:16;;;;;;;18.73;14.57;;;21.50;1.00;;;;;;20703590;28;20045;-41
2023/06/28 11:52:38;;;;;;;22.20;14.95;;;21.60;1.00;;;;;;20723893;28;20038;-41
2023/06/28 12:02:59;;;;;;;17.48;12.30;;;21.10;1.00;;;;;;20723302;28;20038;-41
2023/06/28 12:13:22;;;;;;;20.65;13.75;;;20.80;1.00;;;;;;20717086;28;20092;-41
2023/06/28 12:23:44;;;;;;;23.20;12.82;;;20.60;1.00;;;;;;20689904;28;20068;-41
2023/06/28 12:34:05;;;;;;;23.50;16.50;;;20.60;1.00;;;;;;20701621;28;20514;-41
2023/06/28 12:44:26;;;;;;;26.25;16.75;;;20.60;1.00;;;;;;20633447;28;20042;-41
2023/06/28 12:54:49;;;;;;;24.08;16.92;;;20.70;1.00;;;;;;20711857;28;20037;-41
2023/06/28 13:05:10;;;;;;;23.42;14.20;;;20.80;1.00;;;;;;20703950;28;20732;-41
2023/06/28 13:15:31;;;;;;;22.85;15.68;;;20.90;1.00;;;;;;20716776;28;20093;-41
2023/06/28 13:25:53;;;;;;;20.85;14.55;;;21.00;1.00;;;;;;20698958;28;20051;-41
2023/06/28 13:36:19;;;;;;;20.33;14.02;;;21.10;1.00;;;;;;20719401;28;20087;-41
2023/06/28 13:46:40;;;;;;;19.95;13.50;;;21.10;1.00;;;;;;20712185;28;20045;-41
2023/06/28 13:57:02;;;;;;;22.13;12.82;;;21.00;1.00;;;;;;20709119;28;20784;-41
2023/06/28 14:07:24;;;;;;;23.10;13.80;;;21.00;1.00;;;;;;20708614;28;20038;-41
2023/06/28 14:17:45;;;;;;;19.98;13.93;;;20.90;1.00;;;;;;20697836;28;20506;-41
2023/06/28 14:28:06;;;;;;;23.15;13.68;;;20.90;1.00;;;;;;20704122;28;20080;-41
2023/06/28 14:38:28;;;;;;;20.60;12.57;;;20.90;1.00;;;;;;20704556;28;20080;-41
2023/06/28 14:48:49;;;;;;;22.60;14.75;;;20.70;1.00;;;;;;20703858;28;20073;-41
2023/06/28 14:59:10;;;;;;;16.00;11.70;;;20.70;1.00;;;;;;20701814;28;20064;-41
2023/06/28 15:09:32;;;;;;;23.80;14.85;;;20.70;1.00;;;;;;20697627;28;20440;-41
2023/06/28 15:19:53;;;;;;;22.95;13.57;;;20.80;1.00;;;;;;20697647;28;20076;-41
2023/06/28 15:30:16;;;;;;;21.98;14.30;;;20.80;1.00;;;;;;20706151;28;20135;-41
2023/06/28 15:40:37;;;;;;;19.92;13.90;;;20.90;1.00;;;;;;20721589;28;20064;-41
2023/06/28 15:50:58;;;;;;;21.10;12.77;;;20.90;1.00;;;;;;20719986;28;20525;-41
2023/06/28 16:01:20;;;;;;;25.98;14.73;;;20.90;1.00;;;;;;20710635;28;20672;-41
2023/06/28 16:11:41;;;;;;;15.48;10.82;;;21.00;1.00;;;;;;20702168;28;20115;-42
2023/06/28 16:22:03;;;;;;;21.17;13.45;;;21.00;1.00;;;;;;20709913;28;20121;-42
2023/06/28 16:32:24;;;;;;;18.42;12.73;;;21.10;1.00;;;;;;20718248;28;20045;-41
2023/06/28 16:42:45;;;;;;;18.85;11.77;;;21.10;1.00;;;;;;20711860;28;20034;-42
2023/06/28 16:53:07;;;;;;;14.35;9.10;;;21.30;1.00;;;;;;20704346;28;20502;-41
2023/06/28 17:03:28;;;;;;;13.57;8.32;;;21.30;1.00;;;;;;20659952;28;20065;-42
2023/06/28 17:13:49;;;;;;;15.25;8.55;;;21.10;1.00;;;;;;20692514;28;20655;-42
2023/06/28 17:24:11;;;;;;;14.27;8.40;;;21.00;1.00;;;;;;20712729;28;20041;-42
2023/06/28 17:34:32;;;;;;;13.23;8.60;;;21.00;1.00;;;;;;20707390;28;20179;-41
2023/06/28 17:44:53;;;;;;;16.05;8.68;;;21.00;1.00;;;;;;20702187;28;20033;-41
2023/06/28 17:55:15;;;;;;;15.68;8.52;;;21.10;1.00;;;;;;20704206;28;20140;-42
2023/06/28 18:05:36;;;;;;;13.63;9.18;;;21.20;1.00;;;;;;20694651;28;20103;-42
2023/06/28 18:15:57;;;;;;;14.75;8.18;;;21.30;1.00;;;;;;20692176;28;20164;-42
2023/06/28 18:26:19;;;;;;;9.43;6.75;;;21.20;1.00;;;;;;20701269;28;20033;-41
2023/06/28 18:36:40;;;;;;;13.85;7.78;;;21.30;1.00;;;;;;20703522;28;20049;-41
2023/06/28 18:47:03;;;;;;;11.60;7.65;;;21.40;1.00;;;;;;20703554;28;20072;-42
2023/06/28 18:57:24;;;;;;;12.32;7.38;;;21.40;1.00;;;;;;20654579;28;20037;-41
2023/06/28 19:07:47;;;;;;;12.48;7.80;;;21.30;1.00;;;;;;20705180;28;20064;-42
2023/06/28 19:18:08;;;;;;;11.95;8.10;;;21.30;1.00;;;;;;20712347;28;20182;-42
2023/06/28 19:28:29;;;;;;;12.10;7.20;;;21.30;1.00;;;;;;20707322;28;20044;-42
2023/06/28 19:38:51;;;;;;;10.43;6.90;;;21.10;1.00;;;;;;20707110;28;20718;-41
2023/06/28 19:49:12;;;;;;;11.43;8.10;;;21.00;1.00;;;;;;20700303;28;20069;-42
2023/06/28 19:59:34;;;;;;;12.45;8.35;;;21.00;1.00;;;;;;20707282;28;20485;-42
2023/06/28 20:09:56;;;;;;;16.00;11.25;;;21.00;1.00;;;;;;20706482;28;20077;-41
2023/06/28 20:20:17;;;;;;;16.40;9.40;;;21.00;1.00;;;;;;20713827;28;20034;-41
2023/06/28 20:30:38;;;;;;;14.73;8.85;;;21.00;1.00;;;;;;20712614;28;20038;-42
2023/06/28 20:41:00;;;;;;;14.65;9.55;;;20.90;1.00;;;;;;20713913;28;20512;-42
2023/06/28 20:51:21;;;;;;;14.45;9.20;;;20.80;1.00;;;;;;20711088;28;20052;-42
2023/06/28 21:01:43;;;;;;;15.93;10.23;;;20.60;1.00;;;;;;20706044;28;20382;-42
2023/06/28 21:12:05;;;;;;;13.77;9.20;;;20.60;1.00;;;;;;20710181;28;20609;-41
2023/06/28 21:22:26;;;;;;;16.00;9.77;;;20.50;1.00;;;;;;20695960;28;20061;-42
2023/06/28 21:32:48;;;;;;;13.75;9.00;;;20.50;1.00;;;;;;20700494;28;20044;-41
2023/06/28 21:43:09;;;;;;;14.07;9.30;;;20.50;1.00;;;;;;20704782;28;20472;-39
2023/06/28 21:53:30;;;;;;;13.90;9.23;;;20.50;1.00;;;;;;20692426;28;20073;-39
2023/06/28 22:03:51;;;;;;;13.82;8.90;;;20.30;1.00;;;;;;20686708;28;20536;-39
2023/06/28 22:14:14;;;;;;;13.52;9.27;;;20.20;1.00;;;;;;20703177;28;20113;-39
2023/06/28 22:24:35;;;;;;;14.35;9.00;;;20.20;1.00;;;;;;20699401;28;20030;-39
2023/06/28 22:34:57;;;;;;;15.02;10.00;;;20.20;1.00;;;;;;20686125;28;20073;-39
2023/06/28 22:45:18;;;;;;;15.52;9.73;;;20.20;1.00;;;;;;20703387;28;20606;-39
2023/06/28 22:55:39;;;;;;;12.73;8.98;;;20.20;1.00;;;;;;20698211;28;20137;-39
2023/06/28 23:06:00;;;;;;;15.18;9.82;;;20.10;1.00;;;;;;20701787;28;20039;-39
